Open Door, Argentina
Current Conditions -  °F | °C
As of 6:00 PM on Wednesday 22 Oct 2014 (Local Time) from SADF Reporting Station
Clear Clear  
Wind Chill: 84°   Ceiling: Unl
Heat Index: 85°   Visibility: 6mi
Dew Point: 63°   Wind: 10mph
Humidity: 48%   Direction: 360°N
Pressure: 29.94"   Gusts: NA
Location:  34.5°S, 59.1°W
Report Text: SADF 222100Z 36009KT CAVOK 29/17 Q1014
Loading
Personal Weather Stations






























Interactive Weather Map
Tropical Storm Tracking
New forecast layout! Learn more

10-Day Weather Forecast

Advertisements
Track Severe Weather on mobile